Amunt
Inicio > meteoXarxa
Fes-te'n soci

METEOXARXA

Castelló de la Plana
Ubicació Port
Comarca la Plana Alta
Altitud (msnm) 13
Posició geogràfica 39° 57' 44.00" N, 00° 1' 49.00" E
Model Davis Vantage Pro
Presa de dades
Font de les dades Universitat Jaume I de Castelló
Estadístiques. Resum
Data Temperatura (ºC) Humitat (%) Pressió (hPa) Vent (km/h) Precipit. (mm)
Mínima Mitjana Màxima Mínima Mitjana Màxima Mínima Mitjana Màxima Predom. Mitjana Ràfega màxima Total Dies de pluja
Mínima Mitjana Màxima Mínima Mitjana Màxima
Últimes dades diàries
18-01-2017 4,0     7,2     9,8 WNW 14,0 38,6 0,0  
17-01-2017 5,8     10,7     15,7 N 18,3 53,1 0,0  
16-01-2017 10,9     13,9     17,1 NW 12,7 53,1 0,0  
15-01-2017 8,3     12,2     15,2 NW 13,7 48,3 0,0  
14-01-2017 8,8     11,2     13,5 NW 23,8 54,7 0,0  
13-01-2017 9,7     13,9     17,8 WNW 18,3 48,3 0,0  
12-01-2017 9,8     13,6     18,3 W 7,9 25,7 0,0  
11-01-2017 9,8     13,5     15,4 ENE 16,6 53,1 0,0  
10-01-2017 8,1     13,2     16,7 NW 18,3 88,5 0,2  
09-01-2017 8,2     11,2     14,2 WNW 8,0 27,4 0,0  
08-01-2017 6,3     10,2     14,1 W 3,2 19,3 0,0  
07-01-2017 7,6     10,8     13,7 N 4,7 19,3 0,0  
06-01-2017 7,1     10,8     13,3 NE 8,0 19,3 0,0  
05-01-2017 8,6     12,5     15,6 ENE 10,9 32,2 0,0  
04-01-2017 9,1     11,8     14,7 NNE 2,4 14,5 0,2  
03-01-2017 8,3     11,7     14,4 NNE 2,9 19,3 0,0  
02-01-2017 7,2     10,2     13,0 NW 4,2 19,3 0,0  
01-01-2017 7,2     10,9     14,6 WNW 9,7 30,6 0,0  
31-12-2016 9,2     11,4     13,9 E 7,2 25,7 0,0  
30-12-2016 6,7     10,3     14,6 NNE 6,3 16,1 0,0  
29-12-2016 7,0     10,8     14,7 NNE 10,3 27,4 0,0  
28-12-2016 8,3     11,5     15,2 ENE 3,1 20,9 0,2  
27-12-2016 8,6     12,0     14,8 ENE 0,8 9,7 0,0  
26-12-2016 9,1     12,4     15,6 ENE 2,6 19,3 0,0  
25-12-2016 10,7     13,1     16,0 SW 9,7 30,6 0,0  
24-12-2016 11,0     13,4     17,9 W 9,5 30,6 0,0  
23-12-2016 10,4     13,1     16,4 S 5,6 22,5 0,0  
22-12-2016 11,0     13,7     17,4 WNW 6,3 20,9 0,0  
21-12-2016 12,2     14,3     17,4 NW 8,0 27,4 0,0  
20-12-2016 11,2     14,0     16,6 NW 15,9 43,5 0,0  
19-12-2016 10,2     11,8     12,8 NW 2,4 38,6  
18-12-2016 11,4     12,6     14,3 34,6  
Dades del mes en curs (actualitzades fins l'últim dia disponible)
01/2017 4,0 8,0 10,9 11,6 9,8 14,8 18,3   11,0 88,5 0,4  
Últimes dades mensuals
12/2016 6,7 10,7 16,1 13,3 12,8 15,9 17,9 6,8 70,8 84,2 6
11/2016 8,2 13,0 18,3 16,0 14,6 18,5 24,5 13,5 64,4 73,4 11
10/2016 14,9 18,6 21,7 21,0 19,7 22,7 25,1 8,8 48,3 13,2 9
09/2016 17,6 21,4 26,2 24,1 23,6 26,1 30,2 9,7 77,2 12,8 4
08/2016 20,9 23,4 25,8 25,7 25,2 27,1 28,2 10,0 41,8 5,2 6
07/2016 20,7 23,6 25,6 25,5 24,2 26,8 28,7 9,6 46,7 0,0 0
06/2016 16,2 20,4 23,6 22,5 21,2 24,4 31,4 10,5 66,0 1,2 2
05/2016 10,8 16,0 19,0 18,1 16,7 19,9 27,4 12,0 82,1 19,0 10
04/2016 9,2 13,5 16,2 15,7 15,3 17,9 24,6 13,0 64,4 9,4 9
03/2016 7,3 10,7 13,4 13,5 12,6 16,0 21,8 14,0 78,9 23,6 8
02/2016 5,4 10,3 16,7 13,5 11,6 16,5 24,8 15,5 78,9 2,6 3
01/2016 6,7 10,6 15,4 13,7 11,9 16,8 21,9 14,1 74,0 0,2 1
12/2015 8,9 11,1 14,3 14,1 15,8 16,6 18,6 5,5 30,6 0,4 2
Dades de l'any en curs (actualitzades fins l'últim dia disponible)
2017 4,0 8,0 10,9 11,6 9,8 14,8 18,3   11,0 88,5 0,4  
Últimes dades anuals